createdAt,value
2019-01-25T00:02:42.717Z,86.57
2019-01-25T00:07:58.370Z,87.48
2019-01-25T00:13:09.203Z,87.26
2019-01-25T00:18:23.823Z,86.67
2019-01-25T00:23:44.394Z,86.27
2019-01-25T00:28:54.391Z,87.63
2019-01-25T00:34:06.707Z,87.80
2019-01-25T00:39:16.062Z,87.25
2019-01-25T00:44:27.152Z,86.75
2019-01-25T00:49:34.645Z,86.72
2019-01-25T00:54:52.124Z,86.29
2019-01-25T01:00:04.402Z,86.24
2019-01-25T01:05:17.016Z,87.98
2019-01-25T01:10:28.596Z,88.55
2019-01-25T01:15:59.324Z,88.40
2019-01-25T01:21:08.930Z,88.18
2019-01-25T01:26:18.469Z,87.59
2019-01-25T01:31:36.081Z,88.90
2019-01-25T01:36:49.177Z,88.19
2019-01-25T01:41:58.864Z,88.29
2019-01-25T01:47:14.520Z,89.37
2019-01-25T01:52:35.282Z,90.63
2019-01-25T01:57:47.225Z,90.26
2019-01-25T02:03:01.266Z,89.12
2019-01-25T02:08:10.556Z,88.91
2019-01-25T02:13:19.047Z,88.48
2019-01-25T02:18:28.812Z,88.59
2019-01-25T02:23:40.627Z,88.74
2019-01-25T02:28:49.818Z,88.09
2019-01-25T02:34:02.643Z,88.01
2019-01-25T02:39:32.662Z,87.38
2019-01-25T02:44:43.901Z,88.05
2019-01-25T02:49:55.938Z,87.62
2019-01-25T02:55:09.629Z,87.03
2019-01-25T03:00:25.109Z,87.00
2019-01-25T03:05:37.054Z,86.84
2019-01-25T03:10:50.777Z,86.22
2019-01-25T03:16:02.256Z,86.32
2019-01-25T03:21:17.082Z,86.88
2019-01-25T03:26:26.426Z,86.38
2019-01-25T03:31:39.326Z,86.58
2019-01-25T03:36:50.356Z,86.67
2019-01-25T03:41:58.099Z,87.10
2019-01-25T03:47:07.805Z,87.93
2019-01-25T03:52:21.688Z,89.41
2019-01-25T03:57:31.253Z,88.77
2019-01-25T04:02:42.359Z,88.11
2019-01-25T04:08:05.303Z,89.08
2019-01-25T04:13:13.761Z,87.72
2019-01-25T04:18:26.258Z,86.89
2019-01-25T04:23:37.171Z,87.42
2019-01-25T04:28:47.381Z,87.04
2019-01-25T04:33:57.648Z,87.03
2019-01-25T04:39:08.038Z,86.73
2019-01-25T04:44:16.831Z,87.24
2019-01-25T04:49:29.973Z,86.61
2019-01-25T04:54:37.061Z,86.59
2019-01-25T04:59:53.165Z,87.39
2019-01-25T05:05:00.808Z,87.99
2019-01-25T05:10:13.014Z,87.54
2019-01-25T05:15:24.884Z,86.60
2019-01-25T05:20:36.745Z,86.36
2019-01-25T05:25:46.823Z,87.87
2019-01-25T05:31:02.582Z,88.39
2019-01-25T05:36:16.413Z,88.82
2019-01-25T05:42:25.666Z,88.87
2019-01-25T05:47:32.656Z,88.62
2019-01-25T05:52:43.313Z,88.41
2019-01-25T05:57:57.328Z,88.09
2019-01-25T06:03:17.163Z,89.31
2019-01-25T06:08:31.457Z,89.03
2019-01-25T06:13:40.326Z,88.58
2019-01-25T06:18:51.764Z,87.97
2019-01-25T06:24:00.007Z,87.61
2019-01-25T06:29:12.038Z,87.15
2019-01-25T06:34:25.716Z,86.90
2019-01-25T06:39:35.868Z,87.69
2019-01-25T06:44:44.071Z,87.58
2019-01-25T06:49:57.051Z,88.07
2019-01-25T06:55:12.810Z,88.35
2019-01-25T07:00:23.597Z,88.59
2019-01-25T07:05:35.612Z,88.97
2019-01-25T07:10:44.885Z,90.11
2019-01-25T07:15:58.512Z,89.25
2019-01-25T07:21:10.519Z,89.13
2019-01-25T07:26:21.798Z,89.34
2019-01-25T07:31:33.561Z,89.61
2019-01-25T07:36:46.585Z,89.41
2019-01-25T07:41:59.627Z,89.28
2019-01-25T07:47:15.399Z,89.03
2019-01-25T07:52:28.303Z,90.09
2019-01-25T07:57:38.407Z,90.20
2019-01-25T08:02:47.743Z,89.28
2019-01-25T08:08:01.341Z,89.67
2019-01-25T08:13:09.127Z,90.22
2019-01-25T08:18:21.393Z,89.85
2019-01-25T08:29:00.974Z,89.86
2019-01-25T08:34:14.108Z,89.00
2019-01-25T08:39:22.397Z,89.74
2019-01-25T08:44:37.749Z,90.47
2019-01-25T08:49:48.114Z,90.26
2019-01-25T08:55:02.419Z,90.04
2019-01-25T09:00:17.776Z,90.89
2019-01-25T09:05:25.367Z,91.23
2019-01-25T09:10:39.073Z,90.66
2019-01-25T09:15:48.378Z,89.84
2019-01-25T09:21:03.070Z,89.87
2019-01-25T09:26:12.073Z,89.06
2019-01-25T09:31:22.133Z,89.68
2019-01-25T09:36:32.231Z,89.36
2019-01-25T09:41:44.302Z,89.58
2019-01-25T09:46:53.552Z,89.91
2019-01-25T09:52:04.136Z,90.03
2019-01-25T09:57:15.178Z,89.80
2019-01-25T10:02:28.185Z,89.95
2019-01-25T10:07:38.286Z,90.15
2019-01-25T10:12:50.698Z,90.13
2019-01-25T10:18:06.131Z,89.62
2019-01-25T10:23:15.839Z,89.87
2019-01-25T10:33:56.129Z,89.80
2019-01-25T10:39:11.141Z,90.32
2019-01-25T10:44:24.172Z,91.35
2019-01-25T10:49:33.152Z,92.03
2019-01-25T10:54:50.071Z,92.88
2019-01-25T10:59:56.639Z,92.00
2019-01-25T11:05:09.736Z,91.77
2019-01-25T11:10:17.280Z,91.73
2019-01-25T11:15:27.465Z,90.99
2019-01-25T11:20:36.709Z,90.95
2019-01-25T11:25:44.826Z,91.03
2019-01-25T11:31:01.385Z,90.80
2019-01-25T11:36:18.298Z,91.96
2019-01-25T11:41:27.440Z,92.52
2019-01-25T11:46:40.594Z,92.55
2019-01-25T11:51:52.519Z,93.27
2019-01-25T11:57:00.415Z,93.49
2019-01-25T12:02:10.801Z,93.33
2019-01-25T12:07:22.348Z,92.31
2019-01-25T12:12:32.944Z,91.86
2019-01-25T12:17:46.067Z,91.94
2019-01-25T12:22:53.764Z,91.37
2019-01-25T12:28:07.694Z,91.85
2019-01-25T12:33:19.875Z,92.20
2019-01-25T12:38:30.131Z,92.10
2019-01-25T12:43:38.843Z,92.31
2019-01-25T12:48:52.023Z,92.50
2019-01-25T12:54:04.483Z,92.51
2019-01-25T12:59:14.939Z,92.44
2019-01-25T13:04:22.512Z,92.18
2019-01-25T13:09:30.646Z,92.53
2019-01-25T13:14:43.055Z,92.59
2019-01-25T13:19:56.895Z,92.07
2019-01-25T13:25:07.956Z,91.88
2019-01-25T13:30:20.982Z,92.93
2019-01-25T13:35:36.472Z,92.93
2019-01-25T13:40:52.256Z,92.63
2019-01-25T13:46:22.851Z,92.38
2019-01-25T13:51:30.929Z,92.79
2019-01-25T13:56:46.296Z,93.28
2019-01-25T14:01:57.145Z,93.84
2019-01-25T14:07:28.085Z,94.69
2019-01-25T14:12:40.194Z,94.92
2019-01-25T14:17:51.119Z,95.30
2019-01-25T14:23:04.627Z,95.76
2019-01-25T14:28:33.456Z,96.08
2019-01-25T14:33:44.766Z,96.10
2019-01-25T14:38:59.404Z,96.19
2019-01-25T14:44:11.890Z,96.29
2019-01-25T14:49:21.805Z,96.92
2019-01-25T14:54:30.484Z,97.38
2019-01-25T14:59:43.926Z,97.58
2019-01-25T15:04:53.386Z,97.70
2019-01-25T15:10:09.447Z,97.73
2019-01-25T15:15:22.944Z,97.66
2019-01-25T15:20:34.763Z,97.99
2019-01-25T15:25:46.038Z,98.09
2019-01-25T15:30:54.796Z,98.24
2019-01-25T15:36:02.771Z,98.35
2019-01-25T15:41:20.073Z,98.53
2019-01-25T15:46:31.385Z,98.64
2019-01-25T15:51:39.918Z,98.83
2019-01-25T15:56:49.868Z,98.95
2019-01-25T16:02:03.593Z,99.19
2019-01-25T16:07:18.040Z,99.30
2019-01-25T16:12:32.719Z,99.28
2019-01-25T16:17:43.382Z,99.17
2019-01-25T16:23:16.222Z,99.35
2019-01-25T16:28:27.762Z,99.13
2019-01-25T16:33:41.029Z,99.29
2019-01-25T16:38:52.272Z,99.08
2019-01-25T16:44:08.818Z,99.20
2019-01-25T16:49:20.253Z,99.24
2019-01-25T16:54:34.666Z,99.29
2019-01-25T16:59:42.051Z,99.41
2019-01-25T17:04:58.400Z,99.29
2019-01-25T17:10:14.552Z,99.52
2019-01-25T17:15:24.900Z,99.56
2019-01-25T17:20:38.258Z,99.30
2019-01-25T17:25:55.363Z,99.55
2019-01-25T17:31:03.920Z,99.58
2019-01-25T17:36:15.621Z,99.46
2019-01-25T17:41:28.507Z,99.65
2019-01-25T17:46:36.894Z,99.81
2019-01-25T17:51:49.230Z,99.79
2019-01-25T17:57:03.817Z,100.00
2019-01-25T18:02:16.173Z,99.96
2019-01-25T18:07:28.432Z,100.00
2019-01-25T18:12:40.458Z,100.00
2019-01-25T18:17:56.420Z,100.00
2019-01-25T18:23:14.142Z,100.00
2019-01-25T18:28:31.284Z,100.00
2019-01-25T18:33:44.589Z,100.00
2019-01-25T18:38:58.898Z,100.00
2019-01-25T18:44:12.054Z,100.00
2019-01-25T18:49:37.315Z,100.00
2019-01-25T18:54:50.781Z,100.00
2019-01-25T19:00:02.942Z,100.00
2019-01-25T19:05:15.491Z,100.00
2019-01-25T19:10:31.910Z,100.00
2019-01-25T19:15:46.810Z,100.00
2019-01-25T19:21:01.080Z,100.00
2019-01-25T19:26:13.717Z,100.00
2019-01-25T19:31:30.944Z,100.00
2019-01-25T19:36:52.192Z,100.00
2019-01-25T19:42:35.920Z,100.00
2019-01-25T19:48:32.488Z,100.00
2019-01-25T19:53:58.428Z,100.00
2019-01-25T19:59:38.313Z,100.00
2019-01-25T20:04:53.569Z,100.00
2019-01-25T20:10:20.888Z,100.00
2019-01-25T20:15:48.537Z,100.00
2019-01-25T20:21:35.173Z,100.00
2019-01-25T20:26:47.269Z,100.00
2019-01-25T20:31:57.904Z,100.00
2019-01-25T20:37:08.189Z,100.00
2019-01-25T20:42:20.015Z,100.00
2019-01-25T20:47:32.422Z,100.00
2019-01-25T20:52:44.372Z,100.00
2019-01-25T20:57:54.248Z,100.00
2019-01-25T21:26:22.797Z,100.00
2019-01-25T21:31:32.766Z,100.00
2019-01-25T21:36:43.526Z,100.00
2019-01-25T21:41:57.162Z,100.00
2019-01-25T21:47:08.997Z,100.00
2019-01-25T21:52:18.826Z,100.00
2019-01-25T21:57:28.678Z,100.00
2019-01-25T22:02:41.516Z,100.00
2019-01-25T22:07:52.394Z,100.00
2019-01-25T22:13:04.407Z,100.00
2019-01-25T22:18:13.417Z,100.00
2019-01-25T22:23:21.969Z,100.00
2019-01-25T22:28:32.294Z,100.00
2019-01-25T22:33:41.394Z,100.00
2019-01-25T22:38:50.785Z,100.00
2019-01-25T22:44:06.548Z,100.00
2019-01-25T22:49:15.657Z,100.00
2019-01-25T22:54:29.892Z,100.00
2019-01-25T22:59:38.978Z,100.00
2019-01-25T23:05:17.715Z,100.00
2019-01-25T23:10:32.538Z,100.00
2019-01-25T23:15:42.434Z,100.00
2019-01-25T23:20:55.199Z,100.00
2019-01-25T23:26:03.786Z,100.00
2019-01-25T23:31:18.542Z,100.00
2019-01-25T23:36:31.188Z,100.00
2019-01-25T23:41:41.165Z,100.00
2019-01-25T23:46:48.185Z,100.00
2019-01-25T23:52:03.745Z,100.00
2019-01-25T23:57:10.811Z,100.00
